createdAt,value
2018-09-24T00:03:27.118Z,86.40
2018-09-24T00:07:22.739Z,87.20
2018-09-24T00:11:18.308Z,87.20
2018-09-24T00:15:13.940Z,88.40
2018-09-24T00:19:09.988Z,88.70
2018-09-24T00:23:05.467Z,89.40
2018-09-24T00:27:01.005Z,89.00
2018-09-24T00:30:56.563Z,87.80
2018-09-24T00:34:52.109Z,87.90
2018-09-24T00:38:47.874Z,88.20
2018-09-24T00:42:43.712Z,88.80
2018-09-24T00:46:39.327Z,88.10
2018-09-24T00:50:35.049Z,87.20
2018-09-24T00:54:31.562Z,87.10
2018-09-24T00:58:27.636Z,86.10
2018-09-24T01:02:23.381Z,86.30
2018-09-24T01:06:19.035Z,85.30
2018-09-24T01:10:14.741Z,86.00
2018-09-24T01:14:10.648Z,85.20
2018-09-24T01:18:06.150Z,84.90
2018-09-24T01:22:01.597Z,84.60
2018-09-24T01:25:57.354Z,84.40
2018-09-24T01:29:54.085Z,84.90
2018-09-24T01:33:49.813Z,84.70
2018-09-24T01:37:45.373Z,85.10
2018-09-24T01:41:40.994Z,85.20
2018-09-24T01:45:36.510Z,85.60
2018-09-24T01:49:32.264Z,86.00
2018-09-24T01:53:27.860Z,86.10
2018-09-24T01:57:23.476Z,86.00
2018-09-24T02:01:19.248Z,85.90
2018-09-24T02:05:16.164Z,86.70
2018-09-24T02:09:11.716Z,86.90
2018-09-24T02:13:07.433Z,86.70
2018-09-24T02:17:03.068Z,86.10
2018-09-24T02:20:59.713Z,85.80
2018-09-24T02:24:56.784Z,85.80
2018-09-24T02:28:52.309Z,85.30
2018-09-24T02:32:47.991Z,85.40
2018-09-24T02:36:44.102Z,85.50
2018-09-24T02:40:39.951Z,86.00
2018-09-24T02:44:35.780Z,86.20
2018-09-24T02:48:31.401Z,86.10
2018-09-24T02:52:26.936Z,86.10
2018-09-24T02:56:22.965Z,87.60
2018-09-24T03:00:22.398Z,87.90
2018-09-24T03:04:17.984Z,87.40
2018-09-24T03:08:14.551Z,87.50
2018-09-24T03:12:10.319Z,87.00
2018-09-24T03:16:05.991Z,86.70
2018-09-24T03:20:01.692Z,86.80
2018-09-24T03:23:57.720Z,86.70
2018-09-24T03:27:53.613Z,87.00
2018-09-24T03:31:49.085Z,86.70
2018-09-24T03:35:44.686Z,86.40
2018-09-24T03:39:40.236Z,86.30
2018-09-24T03:43:35.792Z,86.50
2018-09-24T03:47:31.284Z,87.30
2018-09-24T03:51:28.815Z,86.90
2018-09-24T03:55:24.568Z,86.10
2018-09-24T03:59:25.686Z,85.80
2018-09-24T04:03:21.854Z,85.10
2018-09-24T04:07:22.445Z,85.00
2018-09-24T04:11:23.525Z,84.70
2018-09-24T04:15:24.199Z,85.30
2018-09-24T04:19:24.934Z,85.30
2018-09-24T04:23:25.781Z,85.90
2018-09-24T04:27:26.499Z,86.20
2018-09-24T04:31:27.210Z,86.10
2018-09-24T04:35:27.880Z,86.10
2018-09-24T04:39:28.584Z,87.10
2018-09-24T04:43:29.220Z,87.40
2018-09-24T04:47:29.972Z,87.00
2018-09-24T04:51:30.628Z,86.90
2018-09-24T04:55:31.148Z,86.90
2018-09-24T04:59:31.923Z,86.50
2018-09-24T05:03:32.506Z,87.10
2018-09-24T05:07:33.341Z,87.00
2018-09-24T05:11:33.916Z,87.00
2018-09-24T05:15:34.609Z,87.70
2018-09-24T05:19:35.392Z,87.60
2018-09-24T05:23:36.005Z,87.30
2018-09-24T05:27:36.558Z,87.90
2018-09-24T05:31:37.358Z,87.70
2018-09-24T05:35:38.053Z,88.70
2018-09-24T05:39:38.633Z,88.60
2018-09-24T05:43:39.604Z,89.40
2018-09-24T05:47:40.369Z,89.00
2018-09-24T05:51:41.217Z,89.60
2018-09-24T05:55:42.151Z,90.10
2018-09-24T05:59:43.050Z,91.00
2018-09-24T06:03:43.619Z,91.10
2018-09-24T06:07:44.239Z,90.50
2018-09-24T06:11:44.927Z,90.50
2018-09-24T06:15:45.632Z,89.30
2018-09-24T06:19:46.351Z,88.60
2018-09-24T06:23:47.196Z,86.70
2018-09-24T06:27:48.313Z,86.00
2018-09-24T06:31:48.893Z,87.10
2018-09-24T06:35:49.809Z,86.90
2018-09-24T06:39:50.587Z,87.60
2018-09-24T06:43:51.528Z,87.70
2018-09-24T06:47:52.019Z,86.80
2018-09-24T06:51:52.641Z,86.90
2018-09-24T06:55:53.373Z,86.10
2018-09-24T06:59:54.087Z,86.00
2018-09-24T07:03:54.905Z,85.20
2018-09-24T07:07:55.456Z,85.40
2018-09-24T07:11:56.044Z,85.40
2018-09-24T07:15:56.731Z,85.40
2018-09-24T07:19:57.521Z,85.00
2018-09-24T07:23:58.125Z,83.90
2018-09-24T07:27:58.645Z,83.70
2018-09-24T07:31:59.219Z,83.50
2018-09-24T07:35:59.962Z,84.00
2018-09-24T07:40:00.718Z,83.70
2018-09-24T07:44:01.697Z,82.80
2018-09-24T07:48:02.426Z,82.20
2018-09-24T07:52:03.282Z,82.30
2018-09-24T07:56:05.272Z,82.20
2018-09-24T08:00:05.876Z,81.80
2018-09-24T08:04:06.585Z,82.40
2018-09-24T08:08:07.172Z,82.60
2018-09-24T08:12:07.760Z,82.50
2018-09-24T08:16:08.777Z,83.00
2018-09-24T08:20:09.401Z,81.40
2018-09-24T08:24:10.410Z,81.50
2018-09-24T08:28:11.151Z,81.60
2018-09-24T08:32:11.662Z,82.20
2018-09-24T08:36:13.022Z,82.20
2018-09-24T08:40:13.483Z,81.30
2018-09-24T08:44:14.518Z,81.30
2018-09-24T08:48:15.198Z,81.30
2018-09-24T08:52:15.812Z,81.10
2018-09-24T08:56:16.389Z,79.40
2018-09-24T09:00:17.095Z,80.60
2018-09-24T09:04:17.736Z,79.60
2018-09-24T09:08:18.387Z,78.90
2018-09-24T09:12:19.129Z,78.60
2018-09-24T09:16:19.983Z,78.50
2018-09-24T09:20:20.749Z,79.00
2018-09-24T09:24:21.440Z,79.10
2018-09-24T09:28:21.985Z,79.20
2018-09-24T09:32:22.654Z,78.90
2018-09-24T09:36:23.798Z,77.50
2018-09-24T09:40:24.529Z,77.90
2018-09-24T09:44:25.359Z,77.80
2018-09-24T09:48:26.037Z,78.60
2018-09-24T09:52:26.651Z,78.00
2018-09-24T09:56:27.277Z,76.40
2018-09-24T10:00:28.168Z,76.60
2018-09-24T10:04:29.053Z,75.40
2018-09-24T10:08:29.799Z,75.80
2018-09-24T10:12:30.417Z,75.70
2018-09-24T10:16:31.206Z,75.10
2018-09-24T10:20:31.820Z,74.60
2018-09-24T10:24:32.680Z,74.10
2018-09-24T10:28:33.560Z,74.50
2018-09-24T10:32:34.258Z,74.30
2018-09-24T10:36:41.524Z,74.60
2018-09-24T10:40:42.273Z,75.20
2018-09-24T10:44:42.887Z,74.10
2018-09-24T10:48:43.601Z,74.10
2018-09-24T10:52:44.560Z,74.40
2018-09-24T10:56:45.244Z,74.10
2018-09-24T11:00:45.967Z,73.90
2018-09-24T11:08:52.558Z,74.30
2018-09-24T11:12:53.273Z,73.30
2018-09-24T11:16:54.137Z,73.00
2018-09-24T11:20:54.642Z,72.60
2018-09-24T11:24:55.446Z,71.70
2018-09-24T11:28:56.200Z,71.70
2018-09-24T11:32:56.824Z,71.20
2018-09-24T11:36:58.241Z,71.30
2018-09-24T11:40:58.866Z,71.20
2018-09-24T11:44:59.627Z,70.80
2018-09-24T11:49:00.562Z,70.20
2018-09-24T11:53:01.509Z,70.10
2018-09-24T11:57:02.286Z,69.40
2018-09-24T12:01:03.024Z,69.70
2018-09-24T12:05:03.856Z,70.20
2018-09-24T12:09:05.092Z,69.90
2018-09-24T12:13:05.863Z,69.70
2018-09-24T12:17:06.917Z,69.40
2018-09-24T12:21:07.644Z,70.70
2018-09-24T12:25:08.901Z,69.90
2018-09-24T12:29:09.549Z,69.70
2018-09-24T12:33:10.320Z,70.60
2018-09-24T12:37:11.029Z,69.80
2018-09-24T12:41:12.066Z,69.50
2018-09-24T12:45:12.857Z,68.90
2018-09-24T12:49:13.673Z,68.80
2018-09-24T12:53:14.444Z,69.00
2018-09-24T12:57:15.052Z,68.20
2018-09-24T13:01:16.130Z,68.30
2018-09-24T13:05:17.073Z,69.00
2018-09-24T13:09:19.446Z,69.00
2018-09-24T13:13:20.084Z,68.50
2018-09-24T13:17:20.877Z,70.10
2018-09-24T13:21:21.556Z,69.60
2018-09-24T13:25:22.289Z,68.90
2018-09-24T13:29:23.267Z,68.50
2018-09-24T13:33:24.048Z,67.90
2018-09-24T13:37:24.955Z,68.40
2018-09-24T13:41:25.755Z,68.40
2018-09-24T13:45:26.636Z,69.10
2018-09-24T13:49:27.210Z,68.80
2018-09-24T13:53:28.162Z,69.20
2018-09-24T13:57:29.105Z,70.00
2018-09-24T14:01:29.852Z,69.10
2018-09-24T14:05:30.542Z,68.60
2018-09-24T14:09:31.504Z,68.90
2018-09-24T14:13:32.737Z,68.60
2018-09-24T14:17:33.422Z,68.20
2018-09-24T14:21:34.194Z,68.00
2018-09-24T14:25:35.015Z,68.70
2018-09-24T14:29:35.720Z,69.10
2018-09-24T14:33:36.467Z,69.10
2018-09-24T14:37:37.733Z,69.00
2018-09-24T14:41:38.560Z,69.20
2018-09-24T14:45:39.600Z,69.70
2018-09-24T14:49:47.541Z,69.40
2018-09-24T14:53:48.425Z,69.40
2018-09-24T14:57:49.440Z,69.40
2018-09-24T15:01:49.940Z,69.60
2018-09-24T15:05:50.825Z,70.70
2018-09-24T15:09:51.781Z,70.30
2018-09-24T15:13:52.399Z,70.10
2018-09-24T15:17:53.240Z,70.00
2018-09-24T15:21:53.932Z,70.30
2018-09-24T15:25:54.662Z,70.50
2018-09-24T15:29:55.737Z,70.80
2018-09-24T15:33:56.819Z,71.20
2018-09-24T15:37:57.639Z,71.40
2018-09-24T15:41:58.428Z,71.20
2018-09-24T15:45:59.262Z,73.30
2018-09-24T15:50:00.035Z,72.50
2018-09-24T15:54:00.882Z,72.20
2018-09-24T15:58:01.601Z,72.20
2018-09-24T16:02:02.333Z,72.00
2018-09-24T16:06:03.434Z,72.10
2018-09-24T16:10:04.423Z,73.00
2018-09-24T16:14:06.074Z,72.40
2018-09-24T16:18:06.665Z,72.70
2018-09-24T16:22:07.395Z,72.70
2018-09-24T16:26:08.121Z,74.40
2018-09-24T16:30:15.493Z,72.50
2018-09-24T16:34:16.479Z,72.00
2018-09-24T16:42:39.104Z,72.60
2018-09-24T16:46:40.341Z,72.70
2018-09-24T16:50:41.140Z,73.30
2018-09-24T16:54:42.039Z,72.20
2018-09-24T16:58:42.769Z,72.10
2018-09-24T17:02:44.712Z,72.10
2018-09-24T17:06:45.261Z,72.50
2018-09-24T17:10:46.650Z,72.70
2018-09-24T17:14:47.947Z,71.90
2018-09-24T17:18:49.913Z,72.30
2018-09-24T17:22:50.745Z,72.70
2018-09-24T17:26:52.044Z,73.00
2018-09-24T17:30:52.660Z,73.10
2018-09-24T17:34:54.038Z,74.20
2018-09-24T17:38:55.520Z,74.50
2018-09-24T17:42:56.172Z,73.70
2018-09-24T17:46:56.768Z,72.60
2018-09-24T17:50:57.829Z,72.70
2018-09-24T17:54:58.508Z,72.10
2018-09-24T17:58:59.501Z,72.00
2018-09-24T18:03:00.361Z,71.60
2018-09-24T18:07:01.109Z,71.90
2018-09-24T18:11:01.857Z,71.80
2018-09-24T18:15:02.669Z,70.90
2018-09-24T18:19:03.387Z,71.50
2018-09-24T18:23:04.078Z,71.60
2018-09-24T18:27:04.863Z,71.90
2018-09-24T18:31:07.104Z,71.80
2018-09-24T18:35:07.894Z,71.80
2018-09-24T18:39:08.780Z,71.70
2018-09-24T18:43:09.625Z,71.40
2018-09-24T18:47:11.889Z,71.30
2018-09-24T18:51:12.616Z,71.40
2018-09-24T18:55:13.209Z,71.60
2018-09-24T18:59:13.982Z,71.60
2018-09-24T19:03:14.721Z,71.80
2018-09-24T19:07:15.732Z,71.40
2018-09-24T19:11:16.541Z,71.20
2018-09-24T19:15:17.437Z,71.70
2018-09-24T19:19:18.194Z,71.60
2018-09-24T19:23:18.977Z,71.40
2018-09-24T19:27:19.923Z,72.10
2018-09-24T19:31:20.619Z,72.10
2018-09-24T19:35:21.357Z,72.10
2018-09-24T19:39:22.102Z,72.30
2018-09-24T19:43:23.898Z,72.20
2018-09-24T19:47:25.769Z,72.10
2018-09-24T19:51:27.594Z,72.30
2018-09-24T19:55:29.197Z,72.10
2018-09-24T19:59:30.848Z,72.10
2018-09-24T20:03:32.452Z,72.20
2018-09-24T20:07:34.164Z,72.20
2018-09-24T20:11:37.684Z,72.30
2018-09-24T20:15:40.040Z,72.40
2018-09-24T20:19:41.878Z,72.10
2018-09-24T20:23:43.615Z,72.50
2018-09-24T20:27:45.231Z,72.20
2018-09-24T20:31:47.176Z,72.20
2018-09-24T20:35:48.807Z,72.10
2018-09-24T20:39:50.827Z,72.60
2018-09-24T20:43:52.613Z,72.20
2018-09-24T20:47:54.218Z,72.20
2018-09-24T20:51:56.016Z,72.30
2018-09-24T20:55:59.327Z,72.70
2018-09-24T21:00:00.902Z,72.60
2018-09-24T21:04:02.626Z,72.50
2018-09-24T21:08:04.321Z,72.50
2018-09-24T21:12:06.061Z,72.10
2018-09-24T21:16:07.652Z,72.50
2018-09-24T21:20:09.275Z,72.40
2018-09-24T21:24:11.010Z,72.80
2018-09-24T21:28:13.072Z,72.60
2018-09-24T21:32:14.788Z,74.20
2018-09-24T21:36:17.438Z,74.00
2018-09-24T21:40:19.533Z,73.30
2018-09-24T21:44:21.297Z,72.90
2018-09-24T21:48:22.816Z,74.00
2018-09-24T21:52:24.243Z,73.50
2018-09-24T21:56:25.949Z,73.30
2018-09-24T22:00:27.779Z,73.60
2018-09-24T22:04:29.496Z,72.80
2018-09-24T22:08:31.129Z,72.70
2018-09-24T22:12:33.142Z,73.50
2018-09-24T22:16:51.301Z,73.40
2018-09-24T22:20:53.189Z,74.70
2018-09-24T22:24:55.000Z,74.60
2018-09-24T22:28:56.656Z,74.60
2018-09-24T22:32:58.421Z,74.20
2018-09-24T22:37:00.117Z,74.40
2018-09-24T22:41:01.893Z,75.50
2018-09-24T22:45:03.651Z,76.10
2018-09-24T22:49:05.357Z,76.20
2018-09-24T22:53:07.249Z,76.50
2018-09-24T22:57:08.838Z,76.30
2018-09-24T23:01:10.374Z,76.30
2018-09-24T23:05:12.143Z,75.60
2018-09-24T23:09:14.755Z,76.10
2018-09-24T23:13:16.827Z,76.30
2018-09-24T23:17:18.557Z,76.50
2018-09-24T23:21:20.069Z,76.80
2018-09-24T23:25:21.717Z,77.40
2018-09-24T23:29:23.288Z,76.90
2018-09-24T23:33:24.857Z,76.80
2018-09-24T23:37:29.904Z,76.70
2018-09-24T23:41:31.456Z,76.90
2018-09-24T23:45:33.622Z,77.10
2018-09-24T23:49:35.325Z,76.70
2018-09-24T23:53:37.316Z,76.50
2018-09-24T23:57:39.133Z,76.60
